Time;durP1;ratioP1;P1;durP2;ratioP2;P2;SDS_P1;SDS_P2;PMS_P1;PMS_P2;Temp;Humidity;BMP_temperature;BMP_pressure;BME280_temperature;BME280_humidity;BME280_pressure;Samples;Min_cycle;Max_cycle;Signal;HPM_P1;HPM_P2
2022/07/09 00:02:23;;;;;;;;;;;;;;;16.53;73.35;99322.53;4740002;30;19922;-92
2022/07/09 00:04:52;;;;;;;;;;;;;;;16.54;73.30;99324.19;4725212;30;20252;-94
2022/07/09 00:11:44;;;;;;;;;;;;;;;16.49;73.13;99312.50;4755426;30;19983;-92
2022/07/09 00:14:18;;;;;;;;;;;;;;;16.43;73.54;99319.84;4726300;30;20412;-92
2022/07/09 00:21:12;;;;;;;;;;;;;;;16.34;73.91;99322.31;4755445;30;19979;-93
2022/07/09 00:23:48;;;;;;;;;;;;;;;16.30;73.92;99323.13;4756803;30;20341;-90
2022/07/09 00:26:18;;;;;;;;;;;;;;;16.27;74.19;99320.97;4740744;30;20329;-90
2022/07/09 00:33:13;;;;;;;;;;;;;;;16.18;74.30;99326.13;4770108;30;19945;-93
2022/07/09 00:35:43;;;;;;;;;;;;;;;16.15;74.52;99319.34;4747994;30;19910;-90
2022/07/09 00:42:34;;;;;;;;;;;;;;;16.11;74.61;99318.25;4777908;30;19919;-89
2022/07/09 00:45:17;;;;;;;;;;;;;;;16.11;74.63;99318.25;4736312;30;19928;-90
2022/07/09 00:52:14;;;;;;;;;;;;;;;16.17;74.35;99310.91;4754025;30;20363;-90
2022/07/09 00:54:48;;;;;;;;;;;;;;;16.14;74.37;99311.44;4724106;30;19922;-89
2022/07/09 00:57:19;;;;;;;;;;;;;;;16.12;74.43;99313.63;4738783;30;20362;-89
2022/07/09 00:59:50;;;;;;;;;;;;;;;16.10;74.41;99315.81;4724149;30;20383;-90
2022/07/09 01:02:19;;;;;;;;;;;;;;;16.12;74.44;99311.72;4724347;30;20342;-88
2022/07/09 01:04:50;;;;;;;;;;;;;;;16.08;74.27;99321.53;4754515;30;19933;-89
2022/07/09 01:07:22;;;;;;;;;;;;;;;16.07;74.82;99319.06;4754132;30;20374;-90
2022/07/09 01:09:50;;;;;;;;;;;;;;;16.13;74.94;99331.59;4754352;30;19994;-88
2022/07/09 01:12:21;;;;;;;;;;;;;;;16.26;74.65;99331.06;4738719;30;20062;-89
2022/07/09 01:14:52;;;;;;;;;;;;;;;16.30;74.41;99326.66;4754489;30;20363;-90
2022/07/09 01:21:45;;;;;;;;;;;;;;;16.49;73.84;99326.13;4754909;30;19925;-90
2022/07/09 01:24:16;;;;;;;;;;;;;;;16.51;73.56;99334.81;4755326;30;19989;-90
2022/07/09 01:31:14;;;;;;;;;;;;;;;16.35;74.05;99323.94;4753831;30;19968;-90
2022/07/09 01:33:43;;;;;;;;;;;;;;;16.33;74.17;99326.16;4723247;30;20378;-88
2022/07/09 01:36:11;;;;;;;;;;;;;;;16.32;74.30;99316.31;4737244;30;20028;-88
2022/07/09 01:43:14;;;;;;;;;;;;;;;16.33;74.25;99309.81;4753668;30;19941;-89
2022/07/09 01:45:51;;;;;;;;;;;;;;;16.27;74.86;99312.81;4737137;30;20370;-89
2022/07/09 01:48:24;;;;;;;;;;;;;;;16.22;74.85;99319.06;4753482;30;20379;-87
2022/07/09 01:51:16;;;;;;;;;;;;;;;16.19;75.05;99314.97;4753831;30;20381;-89
2022/07/09 01:53:46;;;;;;;;;;;;;;;16.22;74.89;99314.44;4758012;30;20355;-88
2022/07/09 01:56:16;;;;;;;;;;;;;;;16.25;74.79;99310.34;4768939;30;19914;-88
2022/07/09 02:03:16;;;;;;;;;;;;;;;16.32;74.64;99307.34;4775899;30;19948;-89
2022/07/09 02:05:47;;;;;;;;;;;;;;;16.31;74.57;99306.53;4772607;30;20379;-88
2022/07/09 02:08:15;;;;;;;;;;;;;;;16.32;74.47;99310.88;4737786;30;20362;-88
2022/07/09 02:10:46;;;;;;;;;;;;;;;16.34;74.31;99305.97;4737769;30;19922;-87
2022/07/09 02:13:15;;;;;;;;;;;;;;;16.38;74.31;99300.78;4752390;30;19922;-89
2022/07/09 02:16:03;;;;;;;;;;;;;;;16.43;74.28;99312.50;4739995;30;19922;-88
2022/07/09 02:23:08;;;;;;;;;;;;;;;16.55;74.31;99325.81;4752753;30;19929;-90
2022/07/09 02:25:42;;;;;;;;;;;;;;;16.61;74.39;99321.16;4736917;30;20305;-88
2022/07/09 02:32:39;;;;;;;;;;;;;;;16.93;73.69;99325.47;4752555;30;20325;-86
2022/07/09 02:35:10;;;;;;;;;;;;;;;17.00;73.43;99329.53;4722897;30;19922;-88
2022/07/09 02:42:02;;;;;;;;;;;;;;;17.00;74.09;99347.81;4757821;30;19968;-87
2022/07/09 02:44:33;;;;;;;;;;;;;;;16.99;73.92;99344.25;4757879;30;20389;-88
2022/07/09 02:51:28;;;;;;;;;;;;;;;17.06;73.80;99338.50;4753026;30;19928;-90
2022/07/09 02:53:58;;;;;;;;;;;;;;;17.08;73.79;99349.94;4708020;30;20436;-89
2022/07/09 02:56:31;;;;;;;;;;;;;;;17.14;73.61;99348.00;4723085;30;20378;-89
2022/07/09 03:03:24;;;;;;;;;;;;;;;17.37;73.45;99365.63;4756287;30;19976;-89
2022/07/09 03:05:54;;;;;;;;;;;;;;;17.44;73.42;99366.13;4725259;30;20362;-88
2022/07/09 03:08:28;;;;;;;;;;;;;;;17.43;73.17;99365.34;4739570;30;19922;-87
2022/07/09 03:10:59;;;;;;;;;;;;;;;17.43;73.33;99367.25;4756001;30;20366;-90
2022/07/09 03:13:30;;;;;;;;;;;;;;;17.42;73.59;99357.41;4740714;30;20323;-87
2022/07/09 03:15:58;;;;;;;;;;;;;;;17.44;73.62;99349.78;4756105;30;20499;-91
2022/07/09 03:22:55;;;;;;;;;;;;;;;17.39;74.05;99341.63;4755684;30;19964;-89
2022/07/09 03:25:24;;;;;;;;;;;;;;;17.35;74.15;99340.56;4740006;30;19928;-90
2022/07/09 03:32:15;;;;;;;;;;;;;;;17.54;73.98;99300.59;4755432;30;20021;-87
2022/07/09 03:34:47;;;;;;;;;;;;;;;17.65;73.73;99274.06;4725274;30;20363;-90
2022/07/09 03:37:16;;;;;;;;;;;;;;;17.76;73.70;99260.03;4739629;30;20348;-93
2022/07/09 03:39:48;;;;;;;;;;;;;;;17.84;73.63;99277.75;4740642;30;20409;-91
2022/07/09 03:42:19;;;;;;;;;;;;;;;17.90;73.49;99267.59;4725255;30;20382;-91
2022/07/09 03:44:51;;;;;;;;;;;;;;;17.89;73.79;99268.72;4726158;30;20333;-90
2022/07/09 03:47:21;;;;;;;;;;;;;;;17.89;73.88;99271.44;4760861;30;20251;-89
2022/07/09 03:49:52;;;;;;;;;;;;;;;17.89;73.77;99285.09;4745609;30;20327;-90
2022/07/09 03:52:24;;;;;;;;;;;;;;;18.01;73.24;99314.75;4764976;30;19922;-92
2022/07/09 03:54:55;;;;;;;;;;;;;;;18.11;72.26;99326.41;4769676;30;19928;-93
2022/07/09 04:01:50;;;;;;;;;;;;;;;18.35;70.85;99322.91;4762710;30;19934;-89
2022/07/09 04:04:23;;;;;;;;;;;;;;;18.50;70.21;99314.56;4729506;30;20465;-90
2022/07/09 04:11:15;;;;;;;;;;;;;;;18.92;70.00;99320.44;4758829;30;19994;-88
2022/07/09 04:13:55;;;;;;;;;;;;;;;18.97;69.57;99318.44;4741611;30;20384;-93
2022/07/09 04:16:31;;;;;;;;;;;;;;;19.15;69.35;99321.50;4726998;30;20367;-87
2022/07/09 04:19:06;;;;;;;;;;;;;;;19.28;69.01;99331.72;4754641;30;20387;-86
2022/07/09 04:21:37;;;;;;;;;;;;;;;19.42;68.43;99327.16;4755468;30;20359;-89
2022/07/09 04:24:12;;;;;;;;;;;;;;;19.57;67.67;99325.28;4741018;30;19937;-92
2022/07/09 04:26:50;;;;;;;;;;;;;;;19.69;67.25;99323.75;4745300;30;20432;-94
2022/07/09 04:29:24;;;;;;;;;;;;;;;19.76;66.57;99333.56;4743267;30;20380;-88
2022/07/09 04:31:53;;;;;;;;;;;;;;;19.78;66.73;99329.41;4741111;30;20029;-88
2022/07/09 04:34:23;;;;;;;;;;;;;;;19.84;66.52;99328.19;4743616;30;19949;-91
2022/07/09 04:36:56;;;;;;;;;;;;;;;19.87;66.44;99326.78;4731576;30;19929;-91
2022/07/09 04:39:46;;;;;;;;;;;;;;;19.98;65.87;99328.28;4665653;30;20474;-92
2022/07/09 04:42:21;;;;;;;;;;;;;;;20.00;65.32;99314.25;4667222;30;20007;-92
2022/07/09 04:45:05;;;;;;;;;;;;;;;19.99;65.06;99316.19;4671240;30;20640;-93
2022/07/09 04:52:02;;;;;;;;;;;;;;;20.21;64.22;99310.06;4711931;30;19962;-89
2022/07/09 04:54:33;;;;;;;;;;;;;;;20.37;63.39;99307.06;4704654;30;19962;-85
2022/07/09 05:01:21;;;;;;;;;;;;;;;20.73;61.57;99299.78;4700649;30;19984;-92
2022/07/09 05:03:52;;;;;;;;;;;;;;;20.95;60.93;99287.31;4672438;30;20424;-88
2022/07/09 05:06:21;;;;;;;;;;;;;;;21.34;59.88;99291.41;4658376;30;19923;-86
2022/07/09 05:13:11;;;;;;;;;;;;;;;22.04;57.27;99284.53;4700557;30;20022;-88
2022/07/09 05:15:40;;;;;;;;;;;;;;;22.27;56.86;99297.16;4657885;30;20390;-89
2022/07/09 05:18:08;;;;;;;;;;;;;;;22.45;56.09;99295.31;4754234;30;20357;-88
2022/07/09 05:20:42;;;;;;;;;;;;;;;22.40;55.29;99295.44;4739663;30;19922;-89
2022/07/09 05:23:13;;;;;;;;;;;;;;;22.45;55.49;99292.56;4739239;30;20367;-94
2022/07/09 05:25:46;;;;;;;;;;;;;;;22.65;55.19;99302.19;4739826;30;19948;-88
2022/07/09 05:28:23;;;;;;;;;;;;;;;22.82;53.98;99300.66;4726448;30;19921;-87
2022/07/09 05:30:56;;;;;;;;;;;;;;;22.96;53.59;99300.50;4725907;30;19985;-89
2022/07/09 05:33:45;;;;;;;;;;;;;;;23.13;52.55;99297.84;4741910;30;20377;-91
2022/07/09 05:36:17;;;;;;;;;;;;;;;23.10;52.76;99295.75;4724624;30;20365;-84
2022/07/09 05:43:03;;;;;;;;;;;;;;;22.89;52.39;99284.50;4754184;30;20277;-89
2022/07/09 05:45:33;;;;;;;;;;;;;;;22.91;51.36;99288.53;4739109;30;19922;-87
2022/07/09 05:48:01;;;;;;;;;;;;;;;22.95;51.40;99291.47;4754306;30;20426;-87
2022/07/09 05:50:31;;;;;;;;;;;;;;;23.17;51.00;99284.22;4738928;30;20374;-90
2022/07/09 05:53:04;;;;;;;;;;;;;;;23.44;50.25;99288.66;4727953;30;20396;-94
2022/07/09 05:55:42;;;;;;;;;;;;;;;23.57;49.59;99285.75;4756031;30;20445;-89
2022/07/09 05:58:17;;;;;;;;;;;;;;;23.90;49.17;99282.53;4757437;30;20388;-90
2022/07/09 06:00:46;;;;;;;;;;;;;;;24.28;48.51;99276.25;4743970;30;20405;-87
2022/07/09 06:03:17;;;;;;;;;;;;;;;24.47;47.87;99269.59;4744377;30;20410;-89
2022/07/09 06:05:50;;;;;;;;;;;;;;;24.54;47.81;99278.16;4755884;30;20449;-90
2022/07/09 06:08:19;;;;;;;;;;;;;;;24.56;47.78;99273.94;4739503;30;19926;-90
2022/07/09 06:10:50;;;;;;;;;;;;;;;24.40;47.30;99265.34;4724428;30;20374;-89
2022/07/09 06:13:19;;;;;;;;;;;;;;;24.38;47.17;99264.88;4738945;30;19926;-91
2022/07/09 06:15:48;;;;;;;;;;;;;;;24.29;46.58;99268.81;4753868;30;20381;-92
2022/07/09 06:22:40;;;;;;;;;;;;;;;24.00;46.59;99270.31;4753696;30;20277;-90
2022/07/09 06:25:13;;;;;;;;;;;;;;;23.79;47.17;99265.50;4753839;30;20389;-90
2022/07/09 06:32:14;;;;;;;;;;;;;;;23.35;47.96;99261.91;4753888;30;20350;-91
2022/07/09 06:34:43;;;;;;;;;;;;;;;23.35;48.37;99267.44;4755860;30;20378;-88
2022/07/09 06:41:39;;;;;;;;;;;;;;;23.48;48.77;99253.81;4756876;30;20018;-89
2022/07/09 06:44:07;;;;;;;;;;;;;;;23.61;48.88;99261.09;4756358;30;20387;-91
2022/07/09 06:46:38;;;;;;;;;;;;;;;23.65;48.56;99256.56;4756207;30;20379;-91
2022/07/09 06:53:30;;;;;;;;;;;;;;;23.26;49.17;99258.34;4757402;30;19925;-90
2022/07/09 06:56:01;;;;;;;;;;;;;;;22.94;49.82;99254.06;4740957;30;20416;-86
2022/07/09 06:58:30;;;;;;;;;;;;;;;22.74;50.82;99252.72;4726138;30;20389;-92
2022/07/09 07:00:59;;;;;;;;;;;;;;;22.69;51.28;99255.63;4711014;30;20298;-91
2022/07/09 07:03:28;;;;;;;;;;;;;;;22.64;51.20;99250.25;4725874;30;20319;-89
2022/07/09 07:06:02;;;;;;;;;;;;;;;22.65;51.20;99260.13;4740007;30;20346;-88
2022/07/09 07:12:56;;;;;;;;;;;;;;;22.43;51.96;99272.00;4760810;30;19925;-86
2022/07/09 07:15:25;;;;;;;;;;;;;;;22.37;52.54;99281.53;4761104;30;20338;-92
2022/07/09 07:22:36;;;;;;;;;;;;;;;21.81;53.80;99286.50;4757214;30;19918;-91
2022/07/09 07:25:06;;;;;;;;;;;;;;;21.71;53.95;99267.53;4713616;30;19993;-93
2022/07/09 07:32:04;;;;;;;;;;;;;;;20.59;59.34;99287.22;4758068;30;19925;-91
2022/07/09 07:34:32;;;;;;;;;;;;;;;19.68;63.81;99302.19;4757316;30;20347;-93
2022/07/09 07:41:20;;;;;;;;;;;;;;;19.10;66.38;99302.44;4757477;30;20289;-84
2022/07/09 07:43:51;;;;;;;;;;;;;;;19.26;65.53;99298.38;4755170;30;20363;-87
2022/07/09 07:46:20;;;;;;;;;;;;;;;19.48;64.83;99309.53;4739565;30;19922;-88
2022/07/09 07:53:12;;;;;;;;;;;;;;;19.84;63.08;99313.69;4755222;30;20031;-86
2022/07/09 07:55:41;;;;;;;;;;;;;;;19.85;65.47;99318.06;4724936;30;20443;-85
2022/07/09 07:58:11;;;;;;;;;;;;;;;19.75;68.37;99330.00;4725189;30;20414;-84
2022/07/09 08:00:42;;;;;;;;;;;;;;;19.70;66.66;99328.16;4754410;30;20502;-86
2022/07/09 08:03:11;;;;;;;;;;;;;;;19.83;67.69;99336.72;4738697;30;20366;-85
2022/07/09 08:05:39;;;;;;;;;;;;;;;19.85;68.25;99338.06;4738707;30;19926;-86
2022/07/09 08:12:32;;;;;;;;;;;;;;;19.97;66.41;99332.09;4754993;30;19924;-87
2022/07/09 08:15:03;;;;;;;;;;;;;;;20.14;65.71;99326.06;4738997;30;20378;-87
2022/07/09 08:21:57;;;;;;;;;;;;;;;20.56;63.47;99327.03;4754512;30;20042;-86
2022/07/09 08:24:28;;;;;;;;;;;;;;;20.78;63.25;99323.56;4739511;30;19948;-88
2022/07/09 08:26:58;;;;;;;;;;;;;;;20.94;62.99;99321.31;4738664;30;20366;-86
2022/07/09 08:29:29;;;;;;;;;;;;;;;20.92;59.46;99318.09;4754262;30;20328;-87
2022/07/09 08:32:02;;;;;;;;;;;;;;;20.89;58.98;99319.53;4738896;30;20362;-86
2022/07/09 08:34:33;;;;;;;;;;;;;;;20.94;59.30;99313.94;4737854;30;20400;-89
2022/07/09 08:37:06;;;;;;;;;;;;;;;21.03;57.40;99319.50;4754344;30;20378;-87
2022/07/09 08:39:38;;;;;;;;;;;;;;;21.14;57.66;99326.41;4755409;30;20382;-87
2022/07/09 08:42:10;;;;;;;;;;;;;;;21.35;57.77;99328.72;4740117;30;19928;-86
2022/07/09 08:44:44;;;;;;;;;;;;;;;21.28;58.38;99331.88;4765555;30;20437;-85
2022/07/09 08:51:37;;;;;;;;;;;;;;;21.26;59.57;99325.06;4767565;30;19925;-86
2022/07/09 08:54:12;;;;;;;;;;;;;;;21.35;59.51;99318.53;4756738;30;19928;-86
2022/07/09 08:56:43;;;;;;;;;;;;;;;21.42;58.68;99316.22;4723719;30;20469;-88
2022/07/09 08:59:12;;;;;;;;;;;;;;;21.46;58.56;99308.19;4739576;30;20401;-86
2022/07/09 09:01:52;;;;;;;;;;;;;;;21.43;58.20;99301.38;4739767;30;20386;-86
2022/07/09 09:04:20;;;;;;;;;;;;;;;21.49;57.40;99298.50;4724037;30;20434;-85
2022/07/09 09:06:53;;;;;;;;;;;;;;;21.48;57.68;99283.97;4724336;30;20281;-86
2022/07/09 09:09:21;;;;;;;;;;;;;;;21.48;57.71;99281.22;4737682;30;20303;-87
2022/07/09 09:11:52;;;;;;;;;;;;;;;21.47;57.13;99270.53;4752971;30;20394;-86
2022/07/09 09:14:22;;;;;;;;;;;;;;;21.63;56.93;99250.66;4723302;30;20371;-87
2022/07/09 09:16:51;;;;;;;;;;;;;;;21.82;56.64;99257.88;4752888;30;19930;-88
2022/07/09 09:19:23;;;;;;;;;;;;;;;22.02;56.80;99259.31;4737033;30;20378;-88
2022/07/09 09:22:02;;;;;;;;;;;;;;;22.07;56.04;99259.19;4738652;30;20465;-89
2022/07/09 09:24:38;;;;;;;;;;;;;;;22.15;55.49;99249.34;4753489;30;20402;-84
2022/07/09 09:31:44;;;;;;;;;;;;;;;22.56;54.29;99231.78;4753636;30;20017;-88
2022/07/09 09:34:13;;;;;;;;;;;;;;;22.68;54.54;99234.72;4724127;30;20341;-86
2022/07/09 09:36:51;;;;;;;;;;;;;;;22.67;53.50;99228.41;4737773;30;20273;-87
2022/07/09 09:39:28;;;;;;;;;;;;;;;22.70;54.11;99232.47;4753255;30;20392;-86
2022/07/09 09:41:59;;;;;;;;;;;;;;;22.88;54.41;99230.56;4753018;30;20331;-87
2022/07/09 09:44:37;;;;;;;;;;;;;;;22.94;54.22;99226.56;4752816;30;20392;-88
2022/07/09 09:47:07;;;;;;;;;;;;;;;22.93;54.14;99224.91;4736947;30;19929;-87
2022/07/09 09:49:37;;;;;;;;;;;;;;;22.98;53.55;99218.47;4736830;30;20374;-88
2022/07/09 09:52:10;;;;;;;;;;;;;;;23.04;53.45;99214.44;4737136;30;20394;-87
2022/07/09 09:54:47;;;;;;;;;;;;;;;23.06;53.02;99217.69;4723069;30;20430;-84
2022/07/09 09:57:18;;;;;;;;;;;;;;;23.06;52.74;99203.91;4737021;30;19928;-86
2022/07/09 09:59:46;;;;;;;;;;;;;;;23.07;53.17;99205.56;4752932;30;20370;-88
2022/07/09 10:02:29;;;;;;;;;;;;;;;23.09;53.19;99200.50;4722950;30;20335;-89
2022/07/09 10:04:57;;;;;;;;;;;;;;;23.13;52.58;99196.78;4708796;30;20290;-87
2022/07/09 10:11:56;;;;;;;;;;;;;;;23.68;51.96;99195.31;4753925;30;19925;-90
2022/07/09 10:14:31;;;;;;;;;;;;;;;23.98;51.49;99199.00;4738702;30;20366;-89
2022/07/09 10:17:19;;;;;;;;;;;;;;;24.25;51.38;99185.09;4722915;30;20366;-88
2022/07/09 10:19:54;;;;;;;;;;;;;;;24.56;50.97;99184.81;4722609;30;19929;-88
2022/07/09 10:22:41;;;;;;;;;;;;;;;24.68;51.23;99184.91;4721882;30;20431;-88
2022/07/09 10:25:11;;;;;;;;;;;;;;;24.96;50.48;99182.44;4708266;30;20323;-88
2022/07/09 10:32:08;;;;;;;;;;;;;;;25.22;49.54;99170.41;4752666;30;20059;-89
2022/07/09 10:34:45;;;;;;;;;;;;;;;25.05;49.38;99169.41;4723247;30;20329;-87
2022/07/09 10:37:13;;;;;;;;;;;;;;;24.70;49.89;99157.78;4752653;30;20412;-85
2022/07/09 10:39:52;;;;;;;;;;;;;;;24.37;50.50;99149.38;4737387;30;20374;-90
2022/07/09 10:42:23;;;;;;;;;;;;;;;24.11;51.16;99146.75;4737264;30;20359;-90
2022/07/09 10:44:53;;;;;;;;;;;;;;;23.87;51.41;99134.34;4753469;30;20358;-91
2022/07/09 10:51:58;;;;;;;;;;;;;;;23.33;52.54;99129.25;4754471;30;20359;-89
2022/07/09 10:54:34;;;;;;;;;;;;;;;23.39;52.70;99126.34;4757063;30;20355;-87
2022/07/09 10:57:03;;;;;;;;;;;;;;;23.52;52.25;99117.06;4742557;30;20375;-86
2022/07/09 10:59:56;;;;;;;;;;;;;;;23.61;51.91;99112.34;4726449;30;20389;-89
2022/07/09 11:02:26;;;;;;;;;;;;;;;23.88;51.73;99115.88;4742566;30;20432;-87
2022/07/09 11:04:57;;;;;;;;;;;;;;;24.51;49.66;99116.88;4708650;30;20335;-85
2022/07/09 11:11:54;;;;;;;;;;;;;;;25.62;47.13;99114.63;4752624;30;20285;-86
2022/07/09 11:14:25;;;;;;;;;;;;;;;25.62;46.77;99104.38;4737906;30;19928;-83
2022/07/09 11:17:00;;;;;;;;;;;;;;;25.21;46.33;99097.00;4707741;30;20366;-86
2022/07/09 11:19:30;;;;;;;;;;;;;;;25.13;46.80;99095.13;4723427;30;20340;-85
2022/07/09 11:22:02;;;;;;;;;;;;;;;25.09;46.18;99083.91;4724866;30;20296;-87
2022/07/09 11:24:31;;;;;;;;;;;;;;;24.84;46.77;99080.28;4762999;24;20339;-89
2022/07/09 11:31:22;;;;;;;;;;;;;;;24.91;45.55;99065.91;4755971;30;20020;-90
2022/07/09 11:36:47;;;;;;;;;;;;;;;24.82;44.94;99049.44;4755578;30;20380;-85
2022/07/09 11:43:48;;;;;;;;;;;;;;;25.85;43.22;99054.22;4758082;30;19925;-88
2022/07/09 11:46:33;;;;;;;;;;;;;;;26.58;42.03;99053.34;4741801;30;20450;-87
2022/07/09 11:49:33;;;;;;;;;;;;;;;27.71;39.89;99067.97;4718628;30;20247;-89
2022/07/09 11:52:01;;;;;;;;;;;;;;;29.13;38.08;99044.63;4754666;30;20469;-89
2022/07/09 11:54:30;;;;;;;;;;;;;;;30.11;36.40;99045.13;4755717;30;20367;-88
2022/07/09 11:57:05;;;;;;;;;;;;;;;30.59;35.06;99045.44;4739073;30;20518;-88
2022/07/09 12:00:08;;;;;;;;;;;;;;;30.37;35.31;99040.75;4738719;30;20294;-89
2022/07/09 12:02:39;;;;;;;;;;;;;;;29.36;36.88;99038.28;4754795;30;20414;-87
2022/07/09 12:05:09;;;;;;;;;;;;;;;28.15;38.38;99036.53;4755388;30;20370;-89
2022/07/09 12:12:05;;;;;;;;;;;;;;;25.67;43.26;99024.00;4764072;30;20078;-88
2022/07/09 12:14:44;;;;;;;;;;;;;;;25.19;44.44;99030.25;4763626;30;20405;-87
2022/07/09 12:17:20;;;;;;;;;;;;;;;25.11;44.88;99022.84;4818282;24;19929;-87
2022/07/09 12:19:48;;;;;;;;;;;;;;;25.20;44.75;99031.91;4745352;30;20405;-89
2022/07/09 12:22:20;;;;;;;;;;;;;;;25.08;44.83;99036.19;4741076;30;20371;-86
2022/07/09 12:24:50;;;;;;;;;;;;;;;25.11;44.76;99031.13;4720936;30;20434;-85
2022/07/09 12:31:37;;;;;;;;;;;;;;;25.28;44.94;99019.94;4737363;30;19930;-84
2022/07/09 12:34:09;;;;;;;;;;;;;;;25.66;44.24;99027.13;4736988;30;20346;-84
2022/07/09 12:36:49;;;;;;;;;;;;;;;25.92;44.55;99022.09;4736696;30;20458;-82
2022/07/09 12:39:28;;;;;;;;;;;;;;;26.45;43.60;99013.81;4722162;30;20335;-84
2022/07/09 12:41:58;;;;;;;;;;;;;;;28.48;39.73;99017.50;4735503;30;20351;-86
2022/07/09 12:44:29;;;;;;;;;;;;;;;30.84;35.79;99014.31;4735309;30;19937;-85
2022/07/09 12:51:27;;;;;;;;;;;;;;;33.82;31.45;98997.28;4738872;30;20120;-85
2022/07/09 12:53:58;;;;;;;;;;;;;;;34.17;31.05;98988.06;4709018;30;20410;-85
2022/07/09 12:56:29;;;;;;;;;;;;;;;34.57;30.61;98999.13;4752045;30;20441;-83
2022/07/09 12:59:21;;;;;;;;;;;;;;;34.98;29.93;98993.75;4736686;30;20327;-85
2022/07/09 13:02:01;;;;;;;;;;;;;;;35.41;29.54;98987.88;4735567;30;20377;-85
2022/07/09 13:04:30;;;;;;;;;;;;;;;35.93;28.35;98987.03;4736452;30;20434;-86
2022/07/09 13:06:58;;;;;;;;;;;;;;;35.52;28.43;98990.56;4749408;30;20429;-86
2022/07/09 13:09:26;;;;;;;;;;;;;;;35.62;28.73;98989.72;4735957;30;20378;-86
2022/07/09 13:11:54;;;;;;;;;;;;;;;35.96;28.30;98989.03;4735949;30;20371;-86
2022/07/09 13:14:23;;;;;;;;;;;;;;;36.43;27.82;98989.31;4735757;30;20383;-85
2022/07/09 13:16:51;;;;;;;;;;;;;;;36.30;27.35;98986.25;4744010;30;20430;-85
2022/07/09 13:19:39;;;;;;;;;;;;;;;36.62;27.08;98982.28;4725680;30;19929;-86
2022/07/09 13:22:27;;;;;;;;;;;;;;;36.47;27.28;98984.47;4669550;30;19923;-86
2022/07/09 13:24:58;;;;;;;;;;;;;;;36.59;27.18;98986.75;4682418;30;20311;-87
2022/07/09 13:27:31;;;;;;;;;;;;;;;36.55;27.34;98988.75;4681514;30;20364;-86
2022/07/09 13:29:59;;;;;;;;;;;;;;;36.52;27.38;98983.19;4681651;30;20427;-85
2022/07/09 13:32:31;;;;;;;;;;;;;;;36.18;27.56;98984.78;4681022;30;20447;-85
2022/07/09 13:35:01;;;;;;;;;;;;;;;35.91;27.86;98987.47;4681484;30;20381;-85
2022/07/09 13:37:33;;;;;;;;;;;;;;;35.33;28.63;98980.72;4681884;30;20368;-87
2022/07/09 13:40:01;;;;;;;;;;;;;;;35.53;28.24;98987.38;4682255;30;20451;-86
2022/07/09 13:42:35;;;;;;;;;;;;;;;35.13;28.67;98981.25;4683014;30;19924;-86
2022/07/09 13:45:07;;;;;;;;;;;;;;;34.44;29.60;98979.19;4683745;30;20459;-86
2022/07/09 13:47:35;;;;;;;;;;;;;;;34.79;29.35;98980.22;4668707;30;19998;-87
2022/07/09 13:50:04;;;;;;;;;;;;;;;35.80;28.59;98976.34;4683748;30;20434;-85
2022/07/09 13:52:49;;;;;;;;;;;;;;;35.90;28.08;98983.03;4682343;30;20396;-87
2022/07/09 13:55:18;;;;;;;;;;;;;;;33.96;30.03;98980.47;4681362;30;20374;-86
2022/07/09 13:57:45;;;;;;;;;;;;;;;35.13;28.61;98978.44;4681252;30;20405;-85
2022/07/09 14:00:15;;;;;;;;;;;;;;;35.32;28.46;98988.34;4735747;30;20397;-87
2022/07/09 14:02:43;;;;;;;;;;;;;;;34.95;28.55;98972.94;4752516;30;20366;-85
2022/07/09 14:05:11;;;;;;;;;;;;;;;34.25;29.42;98977.63;4737005;30;20344;-86
2022/07/09 14:12:05;;;;;;;;;;;;;;;33.71;30.30;98969.31;4752490;30;20328;-86
2022/07/09 14:14:37;;;;;;;;;;;;;;;34.95;28.95;98961.72;4751265;30;19922;-86
2022/07/09 14:17:05;;;;;;;;;;;;;;;35.32;28.42;98960.28;4752330;30;20224;-86
2022/07/09 14:19:33;;;;;;;;;;;;;;;35.77;27.37;98963.13;4752309;30;20449;-86
2022/07/09 14:22:09;;;;;;;;;;;;;;;36.17;27.31;98960.72;4752579;30;19926;-86
2022/07/09 14:24:38;;;;;;;;;;;;;;;35.18;28.36;98951.97;4752302;30;20447;-86
2022/07/09 14:27:08;;;;;;;;;;;;;;;35.83;27.36;98948.63;4752497;30;20410;-86
2022/07/09 14:29:49;;;;;;;;;;;;;;;36.14;26.48;98953.13;4752692;30;20424;-85
2022/07/09 14:32:18;;;;;;;;;;;;;;;36.82;26.23;98957.91;4750474;30;19922;-86
2022/07/09 14:34:47;;;;;;;;;;;;;;;35.84;27.25;98959.44;4751227;30;20361;-86
2022/07/09 14:37:18;;;;;;;;;;;;;;;34.92;28.17;98953.34;4736818;30;20367;-86
2022/07/09 14:39:49;;;;;;;;;;;;;;;35.58;27.64;98969.28;4736257;30;20506;-86
2022/07/09 14:42:22;;;;;;;;;;;;;;;36.73;26.41;98962.47;4736217;30;20260;-85
2022/07/09 14:44:54;;;;;;;;;;;;;;;37.43;25.76;98950.59;4752664;30;20348;-86
2022/07/09 14:51:49;;;;;;;;;;;;;;;32.74;31.09;98960.78;4752648;30;19924;-86
2022/07/09 14:54:22;;;;;;;;;;;;;;;32.25;31.92;98961.34;4754282;30;20331;-87
2022/07/09 14:56:50;;;;;;;;;;;;;;;31.90;32.72;98971.88;4755385;30;20028;-85
2022/07/09 14:59:25;;;;;;;;;;;;;;;31.31;33.34;98959.84;4756434;30;19929;-85
2022/07/09 15:01:58;;;;;;;;;;;;;;;30.62;34.18;98963.91;4755573;30;20452;-85
2022/07/09 15:04:26;;;;;;;;;;;;;;;29.76;35.65;98964.72;4710539;30;20275;-86
2022/07/09 15:06:56;;;;;;;;;;;;;;;29.27;36.44;98963.50;4755473;30;20417;-86
2022/07/09 15:09:28;;;;;;;;;;;;;;;29.04;36.43;98960.66;4755758;30;19962;-86
2022/07/09 15:12:01;;;;;;;;;;;;;;;28.73;37.43;98961.69;4755110;30;20397;-86
2022/07/09 15:14:33;;;;;;;;;;;;;;;29.94;35.82;98963.00;4755397;30;20430;-87
2022/07/09 15:17:08;;;;;;;;;;;;;;;30.97;34.92;98965.53;4724317;30;20065;-87
2022/07/09 15:19:39;;;;;;;;;;;;;;;32.15;33.36;98962.91;4755342;30;20482;-87
2022/07/09 15:22:13;;;;;;;;;;;;;;;33.34;31.99;98956.50;4755413;30;20331;-88
2022/07/09 15:24:45;;;;;;;;;;;;;;;34.09;31.54;98950.88;4739852;30;20335;-87
2022/07/09 15:31:40;;;;;;;;;;;;;;;34.20;31.03;98939.63;4755512;30;19925;-87
2022/07/09 15:34:14;;;;;;;;;;;;;;;34.04;31.03;98939.28;4738817;30;20385;-86
2022/07/09 15:36:41;;;;;;;;;;;;;;;33.83;31.61;98932.53;4754778;30;20415;-86
2022/07/09 15:39:19;;;;;;;;;;;;;;;33.76;31.63;98924.13;4753823;30;20355;-87
2022/07/09 15:41:49;;;;;;;;;;;;;;;33.87;31.39;98926.91;4739081;30;20020;-86
2022/07/09 15:44:20;;;;;;;;;;;;;;;34.24;31.25;98917.25;4754092;30;20401;-87
2022/07/09 15:46:50;;;;;;;;;;;;;;;34.35;31.04;98914.38;4755306;30;20401;-86
2022/07/09 15:49:19;;;;;;;;;;;;;;;34.15;31.09;98905.66;4710034;30;20366;-87
2022/07/09 15:51:49;;;;;;;;;;;;;;;34.22;31.39;98911.25;4710324;30;20374;-90
2022/07/09 15:57:30;;;;;;;;;;;;;;;34.04;31.33;98906.47;4962898;24;19942;31
2022/07/09 16:06:53;;;;;;;;;;;;;;;33.12;32.11;98907.34;5709093;24;20784;-94
2022/07/09 16:10:03;;;;;;;;;;;;;;;31.06;35.02;98918.63;4716624;30;19959;-94
2022/07/09 16:19:35;;;;;;;;;;;;;;;27.25;41.94;98925.47;5008019;24;19990;-95
2022/07/09 16:25:57;;;;;;;;;;;;;;;26.10;43.56;98925.06;2209410;24;20196;-95
2022/07/09 16:29:10;;;;;;;;;;;;;;;25.66;45.11;98919.34;5117565;24;19949;-93
2022/07/09 16:32:12;;;;;;;;;;;;;;;25.47;45.37;98909.72;4731096;30;20274;-86
2022/07/09 16:34:40;;;;;;;;;;;;;;;25.53;44.90;98913.03;4763303;30;20397;-85
2022/07/09 16:37:12;;;;;;;;;;;;;;;25.29;46.39;98902.78;4740618;30;20436;-92
2022/07/09 16:39:51;;;;;;;;;;;;;;;24.91;46.83;98892.81;4741034;30;20359;-89
2022/07/09 16:42:22;;;;;;;;;;;;;;;24.73;47.19;98900.50;4725210;30;20325;-91
2022/07/09 16:44:51;;;;;;;;;;;;;;;24.66;47.56;98897.47;4739047;30;20339;-90
2022/07/09 16:51:57;;;;;;;;;;;;;;;24.40;48.54;98889.44;4754116;30;20374;-86
2022/07/09 16:54:28;;;;;;;;;;;;;;;24.28;48.88;98889.38;4738627;30;20332;-88
2022/07/09 16:57:02;;;;;;;;;;;;;;;24.14;49.82;98887.72;4710739;30;20353;-87
2022/07/09 16:59:31;;;;;;;;;;;;;;;23.99;49.52;98889.16;4738011;30;20409;-86
2022/07/09 17:02:19;;;;;;;;;;;;;;;23.80;50.78;98888.78;4711769;30;19987;-85
2022/07/09 17:04:48;;;;;;;;;;;;;;;23.69;50.92;98901.34;4752698;30;19922;-88
2022/07/09 17:07:16;;;;;;;;;;;;;;;23.58;51.35;98898.97;4753329;30;20362;-85
2022/07/09 17:09:47;;;;;;;;;;;;;;;23.38;52.26;98902.50;4738302;30;20367;-88
2022/07/09 17:12:18;;;;;;;;;;;;;;;23.31;52.26;98905.75;4755068;30;20457;-89